Time,TemperatureF,DewpointF,PressureIn,WindDirection,WindDirectionDegrees,WindSpeedMPH,WindSpeedGustMPH,Humidity,HourlyPrecipIn,Conditions,Clouds,dailyrainin,SoftwareType,DateUTC
2013-01-28 00:00:00,41.7,37.2,30.16,WSW,238,1.0,1.0,84,0.00,,,0.00,Wunderground v.1.15,2013-01-28 08:00:00,
2013-01-28 00:10:00,41.5,37.0,30.16,SW,227,1.0,1.0,84,0.00,,,0.00,Wunderground v.1.15,2013-01-28 08:10:00,
2013-01-28 00:25:00,41.3,36.8,30.17,SW,227,0.0,1.0,84,0.00,,,0.00,Wunderground v.1.15,2013-01-28 08:25:00,
2013-01-28 00:35:00,41.3,36.8,30.17,SW,227,0.0,0.0,84,0.00,,,0.00,Wunderground v.1.15,2013-01-28 08:35:00,
2013-01-28 00:40:00,41.3,36.8,30.16,SW,224,0.0,1.0,84,0.00,,,0.00,Wunderground v.1.15,2013-01-28 08:40:00,
2013-01-28 00:45:00,41.3,36.8,30.16,SSW,209,1.0,1.0,84,0.00,,,0.00,Wunderground v.1.15,2013-01-28 08:45:00,
2013-01-28 00:55:00,41.1,36.3,30.16,WSW,254,1.0,1.0,83,0.00,,,0.00,Wunderground v.1.15,2013-01-28 08:55:00,
2013-01-28 01:15:00,41.4,36.3,30.17,SW,235,1.0,1.0,82,0.00,,,0.00,Wunderground v.1.15,2013-01-28 09:15:00,
2013-01-28 01:25:00,40.9,35.8,30.17,WSW,241,0.0,1.0,82,0.00,,,0.00,Wunderground v.1.15,2013-01-28 09:25:00,
2013-01-28 01:35:00,40.6,35.5,30.17,SSW,195,0.0,0.0,82,0.00,,,0.00,Wunderground v.1.15,2013-01-28 09:35:00,
2013-01-28 01:55:00,40.9,35.5,30.17,SW,233,0.0,0.0,81,0.00,,,0.00,Wunderground v.1.15,2013-01-28 09:55:00,
2013-01-28 02:00:00,40.6,35.2,30.17,SW,233,0.0,0.0,81,0.00,,,0.00,Wunderground v.1.15,2013-01-28 10:00:00,
2013-01-28 02:05:00,40.5,35.4,30.17,SSW,211,1.0,1.0,82,0.00,,,0.00,Wunderground v.1.15,2013-01-28 10:05:00,
2013-01-28 02:15:00,40.4,35.3,30.17,SSW,211,1.0,1.0,82,0.00,,,0.00,Wunderground v.1.15,2013-01-28 10:15:00,
2013-01-28 02:25:00,40.0,35.3,30.17,SSW,211,0.0,0.0,83,0.00,,,0.00,Wunderground v.1.15,2013-01-28 10:25:00,
2013-01-28 02:30:00,40.1,35.4,30.17,SW,232,0.0,0.0,83,0.00,,,0.00,Wunderground v.1.15,2013-01-28 10:30:00,
2013-01-28 02:35:00,40.2,35.1,30.17,SW,232,0.0,1.0,82,0.00,,,0.00,Wunderground v.1.15,2013-01-28 10:35:00,
2013-01-28 02:45:00,40.1,35.0,30.17,SW,232,0.0,0.0,82,0.00,,,0.00,Wunderground v.1.15,2013-01-28 10:45:00,
2013-01-28 02:55:00,39.8,34.8,30.17,SW,232,0.0,0.0,82,0.00,,,0.00,Wunderground v.1.15,2013-01-28 10:55:00,
2013-01-28 03:00:00,39.7,35.0,30.17,SW,232,0.0,2.0,83,0.00,,,0.00,Wunderground v.1.15,2013-01-28 11:00:00,
2013-01-28 03:10:00,39.6,34.9,30.17,SW,229,1.0,1.0,83,0.00,,,0.00,Wunderground v.1.15,2013-01-28 11:10:00,
2013-01-28 03:20:00,39.7,35.0,30.17,SW,229,0.0,0.0,83,0.00,,,0.00,Wunderground v.1.15,2013-01-28 11:20:00,
2013-01-28 03:30:00,39.3,34.9,30.17,SW,229,0.0,1.0,84,0.00,,,0.00,Wunderground v.1.15,2013-01-28 11:30:00,
2013-01-28 03:45:00,39.2,35.1,30.17,SW,220,0.0,0.0,85,0.00,,,0.00,Wunderground v.1.15,2013-01-28 11:45:00,
2013-01-28 03:55:00,39.2,35.1,30.17,SW,220,0.0,0.0,85,0.00,,,0.00,Wunderground v.1.15,2013-01-28 11:55:00,
2013-01-28 04:05:00,39.2,35.1,30.17,SW,220,0.0,1.0,85,0.00,,,0.00,Wunderground v.1.15,2013-01-28 12:05:00,
2013-01-28 04:10:00,39.2,34.8,30.17,SW,220,0.0,0.0,84,0.00,,,0.00,Wunderground v.1.15,2013-01-28 12:10:00,
2013-01-28 04:15:00,38.8,34.4,30.17,SW,220,1.0,2.0,84,0.00,,,0.00,Wunderground v.1.15,2013-01-28 12:15:00,
2013-01-28 04:30:00,39.1,34.7,30.17,SW,220,0.0,0.0,84,0.00,,,0.00,Wunderground v.1.15,2013-01-28 12:30:00,
2013-01-28 04:40:00,39.3,34.9,30.17,SW,220,1.0,1.0,84,0.00,,,0.00,Wunderground v.1.15,2013-01-28 12:40:00,
2013-01-28 04:45:00,39.3,34.6,30.17,SW,220,1.0,1.0,83,0.00,,,0.00,Wunderground v.1.15,2013-01-28 12:45:00,
2013-01-28 04:55:00,39.3,34.9,30.17,SW,220,1.0,1.0,84,0.00,,,0.00,Wunderground v.1.15,2013-01-28 12:55:00,
2013-01-28 05:05:00,39.8,34.8,30.17,SW,220,1.0,1.0,82,0.00,,,0.00,Wunderground v.1.15,2013-01-28 13:05:00,
2013-01-28 05:10:00,39.4,34.7,30.17,SW,220,0.0,1.0,83,0.00,,,0.00,Wunderground v.1.15,2013-01-28 13:10:00,
2013-01-28 05:25:00,40.4,35.3,30.17,SSW,210,3.0,3.0,82,0.00,,,0.00,Wunderground v.1.15,2013-01-28 13:25:00,
2013-01-28 05:40:00,40.8,35.4,30.17,SW,227,1.0,1.0,81,0.00,,,0.00,Wunderground v.1.15,2013-01-28 13:40:00,
2013-01-28 05:45:00,40.7,35.3,30.17,SSW,213,1.0,1.0,81,0.00,,,0.00,Wunderground v.1.15,2013-01-28 13:45:00,
2013-01-28 06:05:00,41.4,35.4,30.17,SW,217,2.0,4.0,79,0.00,,,0.00,Wunderground v.1.15,2013-01-28 14:05:00,
2013-01-28 06:15:00,41.1,35.4,30.17,SW,215,2.0,3.0,80,0.00,,,0.00,Wunderground v.1.15,2013-01-28 14:15:00,
2013-01-28 06:20:00,41.0,35.3,30.17,SSW,196,3.0,4.0,80,0.00,,,0.00,Wunderground v.1.15,2013-01-28 14:20:00,
2013-01-28 06:40:00,40.6,34.9,30.17,SW,217,3.0,5.0,80,0.00,,,0.00,Wunderground v.1.15,2013-01-28 14:40:00,
2013-01-28 06:55:00,41.5,34.8,30.17,SW,223,2.0,4.0,77,0.00,,,0.00,Wunderground v.1.15,2013-01-28 14:55:00,
2013-01-28 07:05:00,41.8,34.8,30.17,SW,236,4.0,5.0,76,0.00,,,0.00,Wunderground v.1.15,2013-01-28 15:05:00,
2013-01-28 07:10:00,41.9,34.9,30.17,SW,234,5.0,5.0,76,0.00,,,0.00,Wunderground v.1.15,2013-01-28 15:10:00,
2013-01-28 07:20:00,42.0,35.0,30.18,SSW,208,4.0,6.0,76,0.00,,,0.00,Wunderground v.1.15,2013-01-28 15:20:00,
2013-01-28 07:25:00,42.2,35.2,30.18,SSW,208,4.0,6.0,76,0.00,,,0.00,Wunderground v.1.15,2013-01-28 15:25:00,
2013-01-28 07:30:00,42.1,35.1,30.18,SW,223,4.0,4.0,76,0.00,,,0.00,Wunderground v.1.15,2013-01-28 15:30:00,
2013-01-28 07:40:00,42.0,35.6,30.19,SW,220,2.0,2.0,78,0.00,,,0.00,Wunderground v.1.15,2013-01-28 15:40:00,
2013-01-28 07:45:00,42.0,36.0,30.19,SSW,213,2.0,2.0,79,0.00,,,0.00,Wunderground v.1.15,2013-01-28 15:45:00,
2013-01-28 07:50:00,41.9,35.9,30.19,SSW,211,2.0,2.0,79,0.00,,,0.00,Wunderground v.1.15,2013-01-28 15:50:00,
2013-01-28 08:05:00,41.7,36.3,30.20,North,355,0.0,0.0,81,0.00,,,0.00,Wunderground v.1.15,2013-01-28 16:05:00,
2013-01-28 08:15:00,42.4,37.0,30.20,SSW,203,0.0,0.0,81,0.00,,,0.00,Wunderground v.1.15,2013-01-28 16:15:00,
2013-01-28 08:25:00,43.0,37.6,30.20,SSW,203,0.0,0.0,81,0.00,,,0.00,Wunderground v.1.15,2013-01-28 16:25:00,
2013-01-28 08:30:00,43.2,37.4,30.21,SSW,203,0.0,0.0,80,0.00,,,0.00,Wunderground v.1.15,2013-01-28 16:30:00,
2013-01-28 08:40:00,44.3,38.5,30.21,West,265,0.0,0.0,80,0.00,,,0.00,Wunderground v.1.15,2013-01-28 16:40:00,
2013-01-28 08:50:00,45.8,39.3,30.21,West,264,1.0,1.0,78,0.00,,,0.00,Wunderground v.1.15,2013-01-28 16:50:00,
2013-01-28 08:55:00,46.7,39.5,30.21,West,266,1.0,1.0,76,0.00,,,0.00,Wunderground v.1.15,2013-01-28 16:55:00,
2013-01-28 09:05:00,47.8,39.2,30.21,NW,304,1.0,1.0,72,0.00,,,0.00,Wunderground v.1.15,2013-01-28 17:05:00,
2013-01-28 09:20:00,48.6,40.0,30.21,South,170,2.0,2.0,72,0.00,,,0.00,Wunderground v.1.15,2013-01-28 17:20:00,
2013-01-28 09:25:00,48.8,39.8,30.21,SW,225,1.0,2.0,71,0.00,,,0.00,Wunderground v.1.15,2013-01-28 17:25:00,
2013-01-28 09:45:00,48.8,39.1,30.21,SSW,212,2.0,4.0,69,0.00,,,0.00,Wunderground v.1.15,2013-01-28 17:45:00,
2013-01-28 09:50:00,48.4,39.8,30.21,West,278,2.0,2.0,72,0.00,,,0.00,Wunderground v.1.15,2013-01-28 17:50:00,
2013-01-28 09:55:00,48.1,39.1,30.22,SW,217,3.0,3.0,71,0.00,,,0.00,Wunderground v.1.15,2013-01-28 17:55:00,
2013-01-28 10:00:00,48.4,39.4,30.22,NNW,338,2.0,2.0,71,0.00,,,0.00,Wunderground v.1.15,2013-01-28 18:00:00,
2013-01-28 10:10:00,49.6,40.2,30.22,SSW,206,1.0,2.0,70,0.00,,,0.00,Wunderground v.1.15,2013-01-28 18:10:00,
2013-01-28 10:15:00,49.6,39.8,30.23,NNW,335,1.0,2.0,69,0.00,,,0.00,Wunderground v.1.15,2013-01-28 18:15:00,
2013-01-28 10:20:00,50.3,40.5,30.23,NNE,15,0.0,2.0,69,0.00,,,0.00,Wunderground v.1.15,2013-01-28 18:20:00,
2013-01-28 10:30:00,51.2,40.2,30.23,NW,309,1.0,1.0,66,0.00,,,0.00,Wunderground v.1.15,2013-01-28 18:30:00,
2013-01-28 10:35:00,51.7,40.7,30.23,SSW,199,1.0,2.0,66,0.00,,,0.00,Wunderground v.1.15,2013-01-28 18:35:00,
2013-01-28 10:50:00,51.9,39.7,30.24,NW,326,1.0,1.0,63,0.00,,,0.00,Wunderground v.1.15,2013-01-28 18:50:00,
2013-01-28 10:55:00,52.3,40.9,30.23,NNW,329,1.0,4.0,65,0.00,,,0.00,Wunderground v.1.15,2013-01-28 18:55:00,
2013-01-28 11:10:00,53.3,40.6,30.24,NW,306,1.0,1.0,62,0.00,,,0.00,Wunderground v.1.15,2013-01-28 19:10:00,
2013-01-28 11:20:00,52.7,40.5,30.24,SW,214,2.0,3.0,63,0.00,,,0.00,Wunderground v.1.15,2013-01-28 19:20:00,
2013-01-28 11:35:00,52.8,41.4,30.24,South,173,2.0,2.0,65,0.00,,,0.00,Wunderground v.1.15,2013-01-28 19:35:00,
2013-01-28 11:40:00,53.5,41.2,30.24,SSW,197,1.0,3.0,63,0.00,,,0.00,Wunderground v.1.15,2013-01-28 19:40:00,
2013-01-28 11:50:00,52.2,40.8,30.23,SW,234,3.0,5.0,65,0.00,,,0.00,Wunderground v.1.15,2013-01-28 19:50:00,
2013-01-28 12:00:00,52.7,41.3,30.23,SSW,207,2.0,4.0,65,0.00,,,0.00,Wunderground v.1.15,2013-01-28 20:00:00,
2013-01-28 12:10:00,54.0,39.5,30.23,WNW,294,2.0,2.0,58,0.00,,,0.00,Wunderground v.1.15,2013-01-28 20:10:00,
2013-01-28 12:35:00,55.4,40.4,30.23,ESE,105,1.0,1.0,57,0.00,,,0.00,Wunderground v.1.15,2013-01-28 20:35:00,
2013-01-28 12:40:00,55.1,40.1,30.22,East,101,1.0,1.0,57,0.00,,,0.00,Wunderground v.1.15,2013-01-28 20:40:00,
2013-01-28 12:50:00,55.8,39.9,30.22,NW,304,2.0,2.0,55,0.00,,,0.00,Wunderground v.1.15,2013-01-28 20:50:00,
2013-01-28 12:55:00,56.0,41.4,30.22,West,277,2.0,3.0,58,0.00,,,0.00,Wunderground v.1.15,2013-01-28 20:55:00,
2013-01-28 13:05:00,54.5,39.6,30.22,SW,229,5.0,5.0,57,0.00,,,0.00,Wunderground v.1.15,2013-01-28 21:05:00,
2013-01-28 13:15:00,54.4,41.2,30.22,SW,232,4.0,4.0,61,0.00,,,0.00,Wunderground v.1.15,2013-01-28 21:15:00,
2013-01-28 13:20:00,54.5,42.2,30.22,WNW,283,4.0,4.0,63,0.00,,,0.00,Wunderground v.1.15,2013-01-28 21:20:00,
2013-01-28 13:30:00,54.9,40.8,30.21,SW,230,5.0,5.0,59,0.00,,,0.00,Wunderground v.1.15,2013-01-28 21:30:00,
2013-01-28 13:45:00,56.8,38.3,30.21,WNW,302,3.0,3.0,50,0.00,,,0.00,Wunderground v.1.15,2013-01-28 21:45:00,
2013-01-28 13:50:00,57.5,41.0,30.21,WNW,302,2.0,2.0,54,0.00,,,0.00,Wunderground v.1.15,2013-01-28 21:50:00,
2013-01-28 14:10:00,57.8,35.4,30.21,NNW,338,5.0,5.0,43,0.00,,,0.00,Wunderground v.1.15,2013-01-28 22:10:00,
2013-01-28 14:20:00,58.5,34.9,30.21,NW,316,5.0,6.0,41,0.00,,,0.00,Wunderground v.1.15,2013-01-28 22:20:00,
2013-01-28 14:25:00,58.2,35.2,30.21,WNW,292,5.0,6.0,42,0.00,,,0.00,Wunderground v.1.15,2013-01-28 22:25:00,
2013-01-28 14:35:00,57.9,35.5,30.21,North,355,6.0,6.0,43,0.00,,,0.00,Wunderground v.1.15,2013-01-28 22:35:00,
2013-01-28 14:40:00,57.6,35.2,30.21,NNW,343,7.0,7.0,43,0.00,,,0.00,Wunderground v.1.15,2013-01-28 22:40:00,
2013-01-28 14:50:00,57.8,36.0,30.21,North,5,5.0,5.0,44,0.00,,,0.00,Wunderground v.1.15,2013-01-28 22:50:00,
2013-01-28 15:00:00,57.3,36.7,30.21,NNW,338,6.0,6.0,46,0.00,,,0.00,Wunderground v.1.15,2013-01-28 23:00:00,
2013-01-28 15:30:00,57.8,37.1,30.21,NNW,329,4.0,6.0,46,0.00,,,0.00,Wunderground v.1.15,2013-01-28 23:30:00,
2013-01-28 15:40:00,57.9,36.7,30.21,NNW,333,4.0,5.0,45,0.00,,,0.00,Wunderground v.1.15,2013-01-28 23:40:00,
2013-01-28 15:55:00,57.8,37.7,30.21,WNW,294,3.0,3.0,47,0.00,,,0.00,Wunderground v.1.15,2013-01-28 23:55:00,
2013-01-28 16:05:00,57.5,37.9,30.21,NNW,331,3.0,3.0,48,0.00,,,0.00,Wunderground v.1.15,2013-01-29 00:05:00,
2013-01-28 16:15:00,56.8,38.3,30.21,NW,317,3.0,3.0,50,0.00,,,0.00,Wunderground v.1.15,2013-01-29 00:15:00,
2013-01-28 16:20:00,56.5,39.1,30.21,NNW,342,2.0,2.0,52,0.00,,,0.00,Wunderground v.1.15,2013-01-29 00:20:00,
2013-01-28 16:40:00,55.3,39.9,30.22,WNW,295,1.0,2.0,56,0.00,,,0.00,Wunderground v.1.15,2013-01-29 00:40:00,
2013-01-28 16:45:00,55.0,40.5,30.22,NW,308,1.0,2.0,58,0.00,,,0.00,Wunderground v.1.15,2013-01-29 00:45:00,
2013-01-28 16:50:00,54.7,41.1,30.22,WSW,245,1.0,1.0,60,0.00,,,0.00,Wunderground v.1.15,2013-01-29 00:50:00,
2013-01-28 17:00:00,54.1,41.4,30.22,NNW,341,0.0,1.0,62,0.00,,,0.00,Wunderground v.1.15,2013-01-29 01:00:00,
2013-01-28 17:10:00,53.4,41.5,30.22,WSW,250,1.0,1.0,64,0.00,,,0.00,Wunderground v.1.15,2013-01-29 01:10:00,
2013-01-28 17:25:00,52.3,41.3,30.22,WNW,286,0.0,0.0,66,0.00,,,0.00,Wunderground v.1.15,2013-01-29 01:25:00,
2013-01-28 17:30:00,52.1,41.5,30.23,WNW,286,0.0,0.0,67,0.00,,,0.00,Wunderground v.1.15,2013-01-29 01:30:00,
2013-01-28 17:40:00,51.4,41.2,30.23,WNW,286,0.0,0.0,68,0.00,,,0.00,Wunderground v.1.15,2013-01-29 01:40:00,
2013-01-28 17:55:00,50.1,40.7,30.23,WNW,286,0.0,0.0,70,0.00,,,0.00,Wunderground v.1.15,2013-01-29 01:55:00,
2013-01-28 18:15:00,49.1,41.2,30.24,NW,310,0.0,0.0,74,0.00,,,0.00,Wunderground v.1.15,2013-01-29 02:15:00,
2013-01-28 18:25:00,48.4,40.8,30.24,NW,304,0.0,0.0,75,0.00,,,0.00,Wunderground v.1.15,2013-01-29 02:25:00,
2013-01-28 18:35:00,47.8,40.9,30.25,West,281,0.0,0.0,77,0.00,,,0.00,Wunderground v.1.15,2013-01-29 02:35:00,
2013-01-28 18:40:00,47.7,40.8,30.25,West,281,0.0,0.0,77,0.00,,,0.00,Wunderground v.1.15,2013-01-29 02:40:00,
2013-01-28 18:45:00,47.4,40.9,30.25,West,279,0.0,0.0,78,0.00,,,0.00,Wunderground v.1.15,2013-01-29 02:45:00,
2013-01-28 18:50:00,47.4,40.9,30.25,West,279,0.0,0.0,78,0.00,,,0.00,Wunderground v.1.15,2013-01-29 02:50:00,
2013-01-28 19:10:00,47.2,41.0,30.26,SW,218,1.0,1.0,79,0.00,,,0.00,Wunderground v.1.15,2013-01-29 03:10:00,
2013-01-28 19:30:00,47.6,41.1,30.26,SW,221,0.0,0.0,78,0.00,,,0.00,Wunderground v.1.15,2013-01-29 03:30:00,
2013-01-28 19:45:00,46.9,41.1,30.26,SW,225,0.0,0.0,80,0.00,,,0.00,Wunderground v.1.15,2013-01-29 03:45:00,
2013-01-28 19:55:00,46.8,41.0,30.26,SW,222,1.0,1.0,80,0.00,,,0.00,Wunderground v.1.15,2013-01-29 03:55:00,
2013-01-28 20:05:00,47.0,41.5,30.26,SW,220,3.0,3.0,81,0.00,,,0.00,Wunderground v.1.15,2013-01-29 04:05:00,
2013-01-28 20:15:00,47.5,41.6,30.26,SW,219,3.0,4.0,80,0.00,,,0.00,Wunderground v.1.15,2013-01-29 04:15:00,
2013-01-28 20:25:00,47.8,41.6,30.27,SW,217,3.0,3.0,79,0.00,,,0.00,Wunderground v.1.15,2013-01-29 04:25:00,
2013-01-28 20:35:00,47.6,41.7,30.27,SW,220,3.0,3.0,80,0.00,,,0.00,Wunderground v.1.15,2013-01-29 04:35:00,
2013-01-28 20:45:00,47.3,41.8,30.27,SW,217,2.0,3.0,81,0.00,,,0.00,Wunderground v.1.15,2013-01-29 04:45:00,
2013-01-28 20:50:00,47.2,41.7,30.27,SW,221,3.0,6.0,81,0.00,,,0.00,Wunderground v.1.15,2013-01-29 04:50:00,
2013-01-28 21:05:00,46.8,41.9,30.27,SW,229,5.0,5.0,83,0.00,,,0.00,Wunderground v.1.15,2013-01-29 05:05:00,
2013-01-28 21:15:00,46.7,41.5,30.27,SW,219,4.0,5.0,82,0.00,,,0.00,Wunderground v.1.15,2013-01-29 05:15:00,
2013-01-28 21:20:00,46.5,41.3,30.27,SW,226,4.0,4.0,82,0.00,,,0.00,Wunderground v.1.15,2013-01-29 05:20:00,
2013-01-28 21:35:00,46.7,41.2,30.28,SSW,209,4.0,4.0,81,0.00,,,0.00,Wunderground v.1.15,2013-01-29 05:35:00,
2013-01-28 21:45:00,46.6,41.1,30.27,SW,217,4.0,4.0,81,0.00,,,0.00,Wunderground v.1.15,2013-01-29 05:45:00,
2013-01-28 21:55:00,46.0,40.8,30.27,WSW,240,3.0,3.0,82,0.00,,,0.00,Wunderground v.1.15,2013-01-29 05:55:00,
2013-01-28 22:14:00,45.9,41.6,30.27,SW,224,4.0,6.0,85,0.00,,,0.00,Wunderground v.1.15,2013-01-29 06:14:00,
2013-01-28 22:20:00,45.9,41.6,30.28,SW,215,5.0,6.0,85,0.00,,,0.00,Wunderground v.1.15,2013-01-29 06:20:00,
2013-01-28 22:25:00,46.0,42.0,30.28,SSW,207,6.0,6.0,86,0.00,,,0.00,Wunderground v.1.15,2013-01-29 06:25:00,
2013-01-28 22:30:00,45.9,41.9,30.28,SSW,209,6.0,6.0,86,0.00,,,0.00,Wunderground v.1.15,2013-01-29 06:30:00,
2013-01-28 22:40:00,45.4,42.1,30.27,SW,223,6.0,7.0,88,0.00,,,0.00,Wunderground v.1.15,2013-01-29 06:40:00,
2013-01-28 22:55:00,45.6,42.3,30.28,SSW,198,5.0,5.0,88,0.00,,,0.00,Wunderground v.1.15,2013-01-29 06:55:00,
2013-01-28 23:00:00,45.5,42.2,30.28,SSW,197,5.0,5.0,88,0.00,,,0.00,Wunderground v.1.15,2013-01-29 07:00:00,
2013-01-28 23:05:00,45.2,42.2,30.28,SSW,204,4.0,5.0,89,0.00,,,0.00,Wunderground v.1.15,2013-01-29 07:05:00,
2013-01-28 23:25:00,45.6,42.3,30.28,SSW,209,5.0,5.0,88,0.00,,,0.00,Wunderground v.1.15,2013-01-29 07:25:00,
2013-01-28 23:35:00,45.6,42.5,30.28,SSW,210,6.0,6.0,89,0.00,,,0.00,Wunderground v.1.15,2013-01-29 07:35:00,
2013-01-28 23:45:00,45.1,42.3,30.29,SW,214,5.0,7.0,90,0.00,,,0.00,Wunderground v.1.15,2013-01-29 07:45:00,
2013-01-28 23:50:00,44.8,42.0,30.28,SW,227,6.0,6.0,90,0.00,,,0.00,Wunderground v.1.15,2013-01-29 07:50:00,